createdAt,value
2022-09-17T00:01:33.248Z,99052.16
2022-09-17T00:04:04.180Z,99042.81
2022-09-17T00:06:35.032Z,99042.31
2022-09-17T00:09:06.536Z,99037.59
2022-09-17T00:11:39.500Z,99027.91
2022-09-17T00:14:10.182Z,99023.56
2022-09-17T00:16:42.511Z,99031.38
2022-09-17T00:19:18.103Z,99038.00
2022-09-17T00:21:45.959Z,99049.28
2022-09-17T00:24:15.471Z,99040.78
2022-09-17T00:26:42.935Z,99034.66
2022-09-17T00:29:11.312Z,99047.22
2022-09-17T00:31:39.867Z,99027.00
2022-09-17T00:34:07.721Z,99020.00
2022-09-17T00:36:39.771Z,99014.56
2022-09-17T00:39:10.963Z,99006.06
2022-09-17T00:41:39.465Z,99001.06
2022-09-17T00:44:50.827Z,99010.38
2022-09-17T00:47:23.666Z,99033.28
2022-09-17T00:49:59.520Z,99050.41
2022-09-17T00:52:41.453Z,99062.94
2022-09-17T00:55:24.740Z,99057.56
2022-09-17T00:57:56.530Z,99082.41
2022-09-17T01:00:24.110Z,99114.97
2022-09-17T01:02:53.606Z,99119.81
2022-09-17T01:06:07.956Z,99055.16
2022-09-17T01:09:04.509Z,99051.69
2022-09-17T01:11:56.301Z,99042.84
2022-09-17T01:15:12.489Z,99070.63
2022-09-17T01:18:21.871Z,99128.44
2022-09-17T01:21:08.125Z,99164.94
2022-09-17T01:24:15.433Z,99160.44
2022-09-17T01:27:20.213Z,99152.84
2022-09-17T01:30:10.603Z,99194.88
2022-09-17T01:33:15.141Z,99179.06
2022-09-17T01:36:09.528Z,99160.97
2022-09-17T01:38:57.108Z,99150.97
2022-09-17T01:42:02.096Z,99163.47
2022-09-17T01:44:59.378Z,99173.69
2022-09-17T01:47:37.856Z,99149.06
2022-09-17T01:50:13.054Z,99166.63
2022-09-17T01:52:44.037Z,99168.00
2022-09-17T01:55:16.669Z,99156.59
2022-09-17T01:58:16.661Z,99139.03
2022-09-17T02:00:52.256Z,99131.53
2022-09-17T02:03:45.139Z,99120.84
2022-09-17T02:06:21.812Z,99132.06
2022-09-17T02:09:01.491Z,99125.53
2022-09-17T02:11:29.445Z,99118.59
2022-09-17T02:14:03.306Z,99107.75
2022-09-17T02:16:37.696Z,99120.53
2022-09-17T02:19:28.358Z,99129.34
2022-09-17T02:22:33.258Z,99197.97
2022-09-17T02:25:44.273Z,99261.28
2022-09-17T02:28:40.995Z,99191.53
2022-09-17T02:31:09.231Z,99129.88
2022-09-17T02:33:39.599Z,99132.94
2022-09-17T02:36:07.686Z,99184.25
2022-09-17T02:38:35.369Z,99208.09
2022-09-17T02:41:20.005Z,99215.44
2022-09-17T02:44:10.714Z,99189.63
2022-09-17T02:47:02.396Z,99197.75
2022-09-17T02:50:09.100Z,99193.91
2022-09-17T02:53:02.514Z,99165.78
2022-09-17T02:55:52.942Z,99163.47
2022-09-17T02:58:53.761Z,99168.88
2022-09-17T03:01:44.514Z,99186.97
2022-09-17T03:04:17.309Z,99183.09
2022-09-17T03:06:48.611Z,99191.94
2022-09-17T03:09:16.449Z,99186.56
2022-09-17T03:11:44.157Z,99183.84
2022-09-17T03:14:11.915Z,99159.91
2022-09-17T03:16:39.512Z,99143.31
2022-09-17T03:19:07.062Z,99125.91
2022-09-17T03:21:34.771Z,99117.00
2022-09-17T03:24:02.495Z,99122.03
2022-09-17T03:26:29.975Z,99135.19
2022-09-17T03:28:59.200Z,99133.63
2022-09-17T03:31:26.741Z,99137.81
2022-09-17T03:33:54.289Z,99136.66
2022-09-17T03:36:21.949Z,99144.69
2022-09-17T03:38:49.349Z,99147.31
2022-09-17T03:41:16.725Z,99149.53
2022-09-17T03:43:44.378Z,99148.34
2022-09-17T03:46:11.806Z,99149.88
2022-09-17T03:48:39.824Z,99154.53
2022-09-17T03:51:07.819Z,99157.63
2022-09-17T03:53:35.853Z,99161.84
2022-09-17T03:56:06.782Z,99152.25
2022-09-17T03:58:35.013Z,99136.84
2022-09-17T04:01:04.135Z,99126.47
2022-09-17T04:03:32.387Z,99144.97
2022-09-17T04:06:00.141Z,99159.25
2022-09-17T04:08:27.924Z,99155.41
2022-09-17T04:10:55.778Z,99153.47
2022-09-17T04:13:23.365Z,99168.91
2022-09-17T04:15:52.194Z,99165.81
2022-09-17T04:18:19.688Z,99151.53
2022-09-17T04:20:47.543Z,99163.06
2022-09-17T04:23:15.149Z,99180.44
2022-09-17T04:25:42.983Z,99186.66
2022-09-17T04:28:11.021Z,99197.13
2022-09-17T04:30:38.967Z,99190.19
2022-09-17T04:33:06.606Z,99200.97
2022-09-17T04:35:34.232Z,99190.56
2022-09-17T04:38:01.827Z,99184.03
2022-09-17T04:40:29.835Z,99196.75
2022-09-17T04:43:03.371Z,99209.47
2022-09-17T04:45:33.606Z,99205.59
2022-09-17T04:48:02.038Z,99204.44
2022-09-17T04:50:29.722Z,99225.66
2022-09-17T04:52:57.351Z,99228.75
2022-09-17T04:55:25.417Z,99225.31
2022-09-17T04:57:53.907Z,99220.28
2022-09-17T05:00:23.493Z,99220.28
2022-09-17T05:02:54.338Z,99227.16
2022-09-17T05:05:23.144Z,99225.59
2022-09-17T05:07:50.665Z,99230.56
2022-09-17T05:10:20.993Z,99234.44
2022-09-17T05:12:53.535Z,99247.63
2022-09-17T05:15:22.660Z,99256.44
2022-09-17T05:17:50.693Z,99245.69
2022-09-17T05:20:19.243Z,99243.50
2022-09-17T05:22:52.358Z,99236.63
2022-09-17T05:25:24.902Z,99226.25
2022-09-17T05:27:54.895Z,99223.53
2022-09-17T05:30:23.483Z,99214.25
2022-09-17T05:33:00.575Z,99214.63
2022-09-17T05:35:29.177Z,99203.41
2022-09-17T05:38:04.666Z,99211.50
2022-09-17T05:40:33.651Z,99234.63
2022-09-17T05:43:07.120Z,99242.75
2022-09-17T05:45:37.604Z,99256.66
2022-09-17T05:48:10.156Z,99264.31
2022-09-17T05:50:38.337Z,99268.56
2022-09-17T05:53:12.831Z,99266.69
2022-09-17T05:55:41.151Z,99257.44
2022-09-17T05:58:18.667Z,99249.72
2022-09-17T06:00:48.995Z,99248.97
2022-09-17T06:03:19.822Z,99256.31
2022-09-17T06:05:59.809Z,99252.03
2022-09-17T06:08:29.267Z,99243.53
2022-09-17T06:11:01.500Z,99239.34
2022-09-17T06:13:29.936Z,99255.50
2022-09-17T06:15:58.242Z,99236.59
2022-09-17T06:18:27.701Z,99215.78
2022-09-17T06:21:02.485Z,99201.91
2022-09-17T06:23:35.398Z,99193.03
2022-09-17T06:26:04.926Z,99193.81
2022-09-17T06:28:35.771Z,99203.81
2022-09-17T06:31:07.809Z,99220.38
2022-09-17T06:33:36.519Z,99235.09
2022-09-17T06:36:13.147Z,99236.22
2022-09-17T06:38:42.516Z,99247.03
2022-09-17T06:41:27.113Z,99254.41
2022-09-17T06:44:21.513Z,99257.88
2022-09-17T06:46:52.054Z,99248.25
2022-09-17T06:49:19.760Z,99251.28
2022-09-17T06:51:47.271Z,99247.44
2022-09-17T06:54:15.298Z,99241.69
2022-09-17T06:56:43.023Z,99221.22
2022-09-17T06:59:10.486Z,99223.53
2022-09-17T07:01:38.131Z,99226.66
2022-09-17T07:04:06.106Z,99231.25
2022-09-17T07:06:33.508Z,99216.13
2022-09-17T07:09:01.374Z,99213.81
2022-09-17T07:11:31.613Z,99206.44
2022-09-17T07:13:59.719Z,99210.66
2022-09-17T07:16:28.243Z,99205.25
2022-09-17T07:18:56.039Z,99218.69
2022-09-17T07:21:23.449Z,99221.81
2022-09-17T07:23:51.956Z,99237.25
2022-09-17T07:26:20.018Z,99229.13
2022-09-17T07:28:47.627Z,99235.72
2022-09-17T07:31:16.877Z,99247.31
2022-09-17T07:50:37.581Z,99249.28
2022-09-17T07:53:05.342Z,99258.28
2022-09-17T07:55:32.819Z,99259.50
2022-09-17T07:58:00.322Z,99257.28
2022-09-17T08:00:27.939Z,99256.09
2022-09-17T08:02:56.426Z,99259.56
2022-09-17T08:05:25.337Z,99261.09
2022-09-17T08:07:55.436Z,99266.53
2022-09-17T08:10:23.893Z,99263.06
2022-09-17T08:12:57.175Z,99244.53
2022-09-17T08:15:25.894Z,99239.13
2022-09-17T08:17:53.722Z,99244.09
2022-09-17T08:20:21.855Z,99237.44
2022-09-17T08:22:50.378Z,99236.13
2022-09-17T08:25:18.263Z,99225.25
2022-09-17T08:27:45.691Z,99245.59
2022-09-17T08:30:13.382Z,99252.41
2022-09-17T08:32:40.777Z,99252.72
2022-09-17T08:35:09.444Z,99246.84
2022-09-17T08:37:37.097Z,99237.84
2022-09-17T08:40:05.106Z,99243.13
2022-09-17T08:42:51.612Z,99256.97
2022-09-17T08:45:21.266Z,99256.19
2022-09-17T08:47:49.195Z,99269.41
2022-09-17T08:50:18.590Z,99268.34
2022-09-17T08:53:23.531Z,99257.53
2022-09-17T08:56:09.618Z,99241.69
2022-09-17T08:59:31.076Z,99239.84
2022-09-17T09:02:56.285Z,99247.25
2022-09-17T09:05:46.169Z,99255.81
2022-09-17T09:08:35.572Z,99263.94
2022-09-17T09:11:13.598Z,99268.63
2022-09-17T09:14:10.001Z,99250.56
2022-09-17T09:16:42.222Z,99239.78
2022-09-17T09:19:45.365Z,99229.34
2022-09-17T09:22:47.164Z,99209.66
2022-09-17T09:25:18.046Z,99221.25
2022-09-17T09:28:17.581Z,99231.31
2022-09-17T09:34:14.375Z,99233.56
2022-09-17T09:36:42.411Z,99232.00
2022-09-17T09:39:28.584Z,99226.53
2022-09-17T09:42:16.183Z,99239.66
2022-09-17T09:44:45.721Z,99233.47
2022-09-17T09:47:34.134Z,99234.19
2022-09-17T09:50:31.589Z,99218.66
2022-09-17T09:53:25.191Z,99216.69
2022-09-17T09:56:23.164Z,99222.03
2022-09-17T09:58:50.901Z,99216.34
2022-09-17T10:01:23.276Z,99224.84
2022-09-17T10:03:54.066Z,99221.69
2022-09-17T10:06:21.906Z,99231.72
2022-09-17T10:08:55.366Z,99211.56
2022-09-17T10:11:27.375Z,99195.03
2022-09-17T10:14:26.231Z,99196.56
2022-09-17T10:17:16.480Z,99182.25
2022-09-17T10:19:45.874Z,99176.84
2022-09-17T10:22:25.190Z,99179.88
2022-09-17T10:24:55.970Z,99176.75
2022-09-17T10:27:25.495Z,99178.66
2022-09-17T10:30:08.976Z,99169.72
2022-09-17T10:32:36.696Z,99170.44
2022-09-17T10:35:15.658Z,99168.06
2022-09-17T10:37:52.194Z,99159.50
2022-09-17T10:40:19.652Z,99153.28
2022-09-17T10:43:16.435Z,99150.53
2022-09-17T10:45:59.098Z,99149.34
2022-09-17T10:48:34.156Z,99166.38
2022-09-17T10:51:03.344Z,99162.13
2022-09-17T10:53:31.157Z,99152.44
2022-09-17T10:56:13.118Z,99124.50
2022-09-17T10:59:31.586Z,99085.06
2022-09-17T11:03:00.273Z,99043.31
2022-09-17T11:06:14.611Z,99089.75
2022-09-17T11:08:50.598Z,99085.13
2022-09-17T11:11:52.165Z,99094.31
2022-09-17T11:14:50.032Z,99104.31
2022-09-17T11:18:01.248Z,99107.38
2022-09-17T11:21:16.150Z,99086.88
2022-09-17T11:24:23.249Z,99085.69
2022-09-17T11:27:17.248Z,99082.31
2022-09-17T11:29:55.515Z,99066.13
2022-09-17T11:33:08.457Z,99063.50
2022-09-17T11:35:47.217Z,99077.91
2022-09-17T11:38:30.025Z,99078.38
2022-09-17T11:41:05.103Z,99061.34
2022-09-17T11:43:36.680Z,99066.66
2022-09-17T11:46:44.506Z,99068.09
2022-09-17T11:49:47.836Z,99067.22
2022-09-17T11:52:48.433Z,99055.97
2022-09-17T11:55:33.278Z,99057.63
2022-09-17T11:58:12.183Z,99057.66
2022-09-17T12:00:52.880Z,99041.13
2022-09-17T12:04:03.196Z,99024.63
2022-09-17T12:06:49.392Z,99004.59
2022-09-17T12:09:26.203Z,99006.53
2022-09-17T12:12:01.819Z,99001.59
2022-09-17T12:14:51.124Z,99002.81
2022-09-17T12:17:40.259Z,99003.22
2022-09-17T12:20:29.528Z,98988.97
2022-09-17T12:23:00.316Z,98996.78
2022-09-17T12:25:39.146Z,99004.53
2022-09-17T12:28:20.628Z,99004.53
2022-09-17T12:31:05.621Z,98990.53
2022-09-17T12:33:45.959Z,98987.44
2022-09-17T12:36:48.640Z,98957.31
2022-09-17T12:39:30.954Z,98959.72
2022-09-17T12:42:58.906Z,98956.69
2022-09-17T12:45:47.393Z,98962.09
2022-09-17T12:48:41.362Z,98966.41
2022-09-17T12:51:32.263Z,98959.78
2022-09-17T12:55:00.584Z,98959.00
2022-09-17T12:58:01.122Z,98948.91
2022-09-17T13:00:29.936Z,98943.09
2022-09-17T13:03:22.198Z,98932.75
2022-09-17T13:06:40.840Z,98932.34
2022-09-17T13:09:55.920Z,98955.22
2022-09-17T13:12:58.744Z,98974.63
2022-09-17T13:15:47.131Z,98952.56
2022-09-17T13:19:17.192Z,98945.22
2022-09-17T13:22:07.477Z,98934.03
2022-09-17T13:24:37.599Z,98907.38
2022-09-17T13:27:05.903Z,98910.84
2022-09-17T13:29:45.238Z,98918.97
2022-09-17T13:32:38.890Z,98918.16
2022-09-17T13:35:18.138Z,98925.09
2022-09-17T13:38:01.813Z,98919.66
2022-09-17T13:40:35.295Z,98872.94
2022-09-17T13:43:06.261Z,98853.22
2022-09-17T13:45:54.683Z,98854.03
2022-09-17T13:48:25.790Z,98876.44
2022-09-17T13:50:53.653Z,98867.97
2022-09-17T13:53:26.979Z,98871.81
2022-09-17T13:56:04.810Z,98883.44
2022-09-17T13:58:36.807Z,98896.56
2022-09-17T14:01:27.530Z,98891.09
2022-09-17T14:03:57.111Z,98876.38
2022-09-17T14:06:24.784Z,98848.88
2022-09-17T14:08:57.933Z,98835.72
2022-09-17T14:11:26.658Z,98850.75
2022-09-17T14:13:55.461Z,98848.41
2022-09-17T14:16:29.310Z,98856.91
2022-09-17T14:19:23.042Z,98876.19
2022-09-17T14:22:06.043Z,98889.38
2022-09-17T14:24:38.291Z,98883.28
2022-09-17T14:27:14.741Z,98883.41
2022-09-17T14:30:01.326Z,98857.22
2022-09-17T14:33:03.061Z,98861.59
2022-09-17T14:35:36.064Z,98845.97
2022-09-17T14:38:17.023Z,98836.72
2022-09-17T14:40:58.307Z,98847.56
2022-09-17T14:44:02.254Z,98860.84
2022-09-17T14:46:40.685Z,98862.50
2022-09-17T14:49:28.421Z,98883.72
2022-09-17T14:51:58.383Z,98909.19
2022-09-17T14:54:26.872Z,98916.91
2022-09-17T14:57:08.787Z,98901.03
2022-09-17T14:59:52.726Z,98893.78
2022-09-17T15:02:41.806Z,98858.84
2022-09-17T15:05:19.272Z,98845.97
2022-09-17T15:07:47.643Z,98838.38
2022-09-17T15:10:21.294Z,98837.34
2022-09-17T15:12:50.789Z,98834.31
2022-09-17T15:15:23.779Z,98822.41
2022-09-17T15:17:52.508Z,98825.91
2022-09-17T15:20:31.369Z,98844.84
2022-09-17T15:23:16.888Z,98897.31
2022-09-17T15:25:47.596Z,98921.66
2022-09-17T15:28:33.636Z,98879.25
2022-09-17T15:31:01.785Z,98842.63
2022-09-17T15:33:31.699Z,98831.03
2022-09-17T15:36:30.000Z,98822.16
2022-09-17T15:38:59.119Z,98819.88
2022-09-17T15:41:35.903Z,98804.09
2022-09-17T15:44:32.300Z,98791.81
2022-09-17T15:47:51.139Z,98773.28
2022-09-17T15:50:35.933Z,98764.44
2022-09-17T15:53:09.552Z,98772.56
2022-09-17T15:55:45.956Z,98798.00
2022-09-17T15:58:27.426Z,98802.69
2022-09-17T16:01:17.076Z,98795.66
2022-09-17T16:03:45.697Z,98797.22
2022-09-17T16:06:19.454Z,98799.16
2022-09-17T16:09:01.386Z,98793.72
2022-09-17T16:11:33.126Z,98790.94
2022-09-17T16:14:01.714Z,98793.19
2022-09-17T16:16:38.297Z,98805.16
2022-09-17T16:19:06.705Z,98811.69
2022-09-17T16:21:34.711Z,98806.28
2022-09-17T16:24:02.407Z,98809.38
2022-09-17T16:26:33.966Z,98815.28
2022-09-17T16:29:21.285Z,98829.59
2022-09-17T16:31:50.783Z,98850.44
2022-09-17T16:34:18.269Z,98838.91
2022-09-17T16:36:45.810Z,98835.09
2022-09-17T16:39:13.650Z,98836.69
2022-09-17T16:41:41.209Z,98814.38
2022-09-17T16:44:09.302Z,98826.06
2022-09-17T16:46:37.163Z,98845.38
2022-09-17T16:49:04.745Z,98848.50
2022-09-17T16:51:32.605Z,98863.13
2022-09-17T16:54:00.653Z,98843.88
2022-09-17T16:56:28.302Z,98840.09
2022-09-17T16:58:58.817Z,98850.91
2022-09-17T17:01:26.938Z,98853.28
2022-09-17T17:03:55.677Z,98849.44
2022-09-17T17:06:23.296Z,98877.16
2022-09-17T17:08:51.888Z,98891.47
2022-09-17T17:11:19.532Z,98888.81
2022-09-17T17:13:47.459Z,98875.72
2022-09-17T17:16:16.266Z,98889.53
2022-09-17T17:18:45.205Z,98910.34
2022-09-17T17:21:14.574Z,98903.38
2022-09-17T17:23:47.253Z,98905.66
2022-09-17T17:26:16.664Z,98931.03
2022-09-17T17:28:44.386Z,98928.75
2022-09-17T17:31:12.110Z,98920.31
2022-09-17T17:33:39.697Z,98935.69
2022-09-17T17:36:08.628Z,98939.94
2022-09-17T17:38:37.296Z,98931.84
2022-09-17T17:41:15.430Z,98945.31
2022-09-17T17:43:43.292Z,98976.13
2022-09-17T17:46:12.172Z,98961.53
2022-09-17T17:48:40.549Z,98941.13
2022-09-17T17:51:10.758Z,98952.66
2022-09-17T17:53:42.751Z,98980.41
2022-09-17T17:56:12.024Z,98975.00
2022-09-17T17:58:40.719Z,98984.59
2022-09-17T18:01:14.625Z,99005.38
2022-09-17T18:03:42.877Z,99019.63
2022-09-17T18:06:10.689Z,98985.75
2022-09-17T18:08:40.460Z,99010.41
2022-09-17T18:11:10.443Z,99031.22
2022-09-17T18:13:39.891Z,99054.28
2022-09-17T18:16:09.214Z,99069.28
2022-09-17T18:18:44.721Z,99070.09
2022-09-17T18:21:17.049Z,99065.09
2022-09-17T18:23:45.907Z,99101.59
2022-09-17T18:26:19.496Z,99120.06
2022-09-17T18:28:47.962Z,99146.56
2022-09-17T18:31:21.350Z,99119.19
2022-09-17T18:33:57.648Z,99110.72
2022-09-17T18:36:28.101Z,99104.47
2022-09-17T18:39:56.399Z,99099.81
2022-09-17T18:41:49.579Z,99088.66
2022-09-17T18:44:19.071Z,99088.66
2022-09-17T18:46:48.094Z,99082.53
2022-09-17T18:49:15.960Z,99095.66
2022-09-17T18:51:44.003Z,99094.03
2022-09-17T18:54:13.165Z,99101.25
2022-09-17T18:56:44.405Z,99101.25
2022-09-17T18:59:12.145Z,99106.22
2022-09-17T19:01:39.974Z,99116.97
2022-09-17T19:04:08.407Z,99115.81
2022-09-17T19:06:36.343Z,99137.72
2022-09-17T19:09:05.217Z,99150.81
2022-09-17T19:11:35.574Z,99164.63
2022-09-17T19:14:03.687Z,99159.63
2022-09-17T19:16:31.202Z,99138.50
2022-09-17T19:18:58.753Z,99131.22
2022-09-17T19:21:26.527Z,99135.09
2022-09-17T19:23:54.421Z,99140.13
2022-09-17T19:26:25.377Z,99145.94
2022-09-17T19:28:55.291Z,99161.72
2022-09-17T19:31:23.212Z,99169.78
2022-09-17T19:33:52.129Z,99155.94
2022-09-17T19:36:28.491Z,99170.09
2022-09-17T19:38:58.810Z,99166.97
2022-09-17T19:41:26.719Z,99161.94
2022-09-17T19:43:58.131Z,99180.75
2022-09-17T19:46:27.248Z,99190.72
2022-09-17T19:48:57.237Z,99209.16
2022-09-17T19:51:29.043Z,99190.78
2022-09-17T19:53:57.590Z,99189.22
2022-09-17T19:56:27.689Z,99209.59
2022-09-17T19:58:56.749Z,99203.78
2022-09-17T20:01:24.743Z,99220.69
2022-09-17T20:03:53.385Z,99227.59
2022-09-17T20:06:23.410Z,99240.28
2022-09-17T20:08:54.444Z,99250.34
2022-09-17T20:11:24.262Z,99242.63
2022-09-17T20:14:07.132Z,99240.72
2022-09-17T20:16:37.247Z,99254.13
2022-09-17T20:19:07.165Z,99264.84
2022-09-17T20:21:35.190Z,99273.25
2022-09-17T20:24:02.858Z,99280.47
2022-09-17T20:26:30.744Z,99281.44
2022-09-17T20:28:58.257Z,99297.09
2022-09-17T20:31:31.590Z,99310.09
2022-09-17T20:34:02.434Z,99310.13
2022-09-17T20:36:36.439Z,99308.25
2022-09-17T20:39:12.279Z,99309.53
2022-09-17T20:41:41.985Z,99334.06
2022-09-17T20:44:09.763Z,99333.16
2022-09-17T20:46:37.353Z,99335.44
2022-09-17T20:49:05.496Z,99330.44
2022-09-17T20:51:34.053Z,99326.66
2022-09-17T20:54:02.092Z,99335.50
2022-09-17T20:56:33.318Z,99345.91
2022-09-17T20:59:13.022Z,99354.75
2022-09-17T21:01:44.698Z,99358.47
2022-09-17T21:04:16.677Z,99367.97
2022-09-17T21:06:44.942Z,99373.28
2022-09-17T21:09:17.228Z,99386.31
2022-09-17T21:11:47.801Z,99392.09
2022-09-17T21:14:17.202Z,99382.91
2022-09-17T21:16:45.860Z,99392.91
2022-09-17T21:19:16.380Z,99412.06
2022-09-17T21:21:44.799Z,99418.94
2022-09-17T21:24:18.076Z,99408.78
2022-09-17T21:26:47.507Z,99406.47
2022-09-17T21:29:15.360Z,99398.81
2022-09-17T21:31:45.047Z,99405.75
2022-09-17T21:34:17.550Z,99405.84
2022-09-17T21:36:52.504Z,99396.75
2022-09-17T21:39:22.809Z,99405.19
2022-09-17T21:41:51.189Z,99418.19
2022-09-17T21:44:24.574Z,99406.56
2022-09-17T21:46:59.621Z,99411.84
2022-09-17T21:49:31.421Z,99411.84
2022-09-17T21:52:04.414Z,99418.81
2022-09-17T21:54:36.433Z,99425.75
2022-09-17T21:57:09.262Z,99430.72
2022-09-17T21:59:38.570Z,99413.81
2022-09-17T22:02:07.189Z,99438.78
2022-09-17T22:04:34.658Z,99439.59
2022-09-17T22:07:02.316Z,99448.41
2022-09-17T22:09:30.430Z,99447.97
2022-09-17T22:11:58.429Z,99450.25
2022-09-17T22:14:25.941Z,99450.25
2022-09-17T22:16:57.000Z,99453.34
2022-09-17T22:19:25.726Z,99444.97
2022-09-17T22:21:55.538Z,99456.50
2022-09-17T22:24:24.463Z,99459.63
2022-09-17T22:26:57.229Z,99465.09
2022-09-17T22:29:28.531Z,99460.34
2022-09-17T22:31:57.410Z,99468.47
2022-09-17T22:34:26.016Z,99473.28
2022-09-17T22:36:53.770Z,99462.22
2022-09-17T22:39:21.968Z,99469.63
2022-09-17T22:41:50.220Z,99470.84
2022-09-17T22:44:20.136Z,99467.41
2022-09-17T22:46:51.650Z,99466.69
2022-09-17T22:49:20.136Z,99466.84
2022-09-17T22:51:48.049Z,99467.81
2022-09-17T22:54:17.781Z,99472.97
2022-09-17T22:56:47.338Z,99457.22
2022-09-17T22:59:15.183Z,99466.16
2022-09-17T23:01:43.069Z,99467.81
2022-09-17T23:04:11.076Z,99466.66
2022-09-17T23:06:42.251Z,99465.22
2022-09-17T23:09:11.592Z,99458.53
2022-09-17T23:11:40.588Z,99473.91
2022-09-17T23:14:12.867Z,99473.31
2022-09-17T23:16:47.408Z,99489.69
2022-09-17T23:19:18.829Z,99474.91
2022-09-17T23:21:47.264Z,99475.84
2022-09-17T23:24:21.750Z,99479.13
2022-09-17T23:26:50.722Z,99475.91
2022-09-17T23:29:19.101Z,99489.56
2022-09-17T23:31:46.798Z,99489.47
2022-09-17T23:34:14.773Z,99485.72
2022-09-17T23:36:42.528Z,99497.63
2022-09-17T23:39:12.054Z,99496.22
2022-09-17T23:41:43.445Z,99504.13
2022-09-17T23:44:15.796Z,99499.56
2022-09-17T23:46:46.177Z,99498.09
2022-09-17T23:49:15.595Z,99508.59
2022-09-17T23:51:46.547Z,99516.78
2022-09-17T23:54:14.372Z,99503.91
2022-09-17T23:56:42.025Z,99510.16
2022-09-17T23:59:11.136Z,99504.06
